Time;durP1;ratioP1;P1;durP2;ratioP2;P2;SDS_P1;SDS_P2;PMS_P1;PMS_P2;Temp;Humidity;BMP_temperature;BMP_pressure;BME280_temperature;BME280_humidity;BME280_pressure;Samples;Min_cycle;Max_cycle;Signal;HPM_P1;HPM_P2
2022/09/08 00:00:13;;;;;;;6.00;4.03;;;24.10;99.90;;;;;;4163599;28;20221;-72
2022/09/08 00:02:16;;;;;;;6.18;4.38;;;24.10;99.90;;;;;;4163256;28;20746;-72
2022/09/08 00:04:18;;;;;;;5.63;3.67;;;24.00;99.90;;;;;;4162539;28;20341;-72
2022/09/08 00:06:21;;;;;;;4.97;3.47;;;24.00;99.90;;;;;;4165485;28;20266;-72
2022/09/08 00:08:24;;;;;;;5.85;3.85;;;24.00;99.90;;;;;;4164669;28;20259;-72
2022/09/08 00:10:30;;;;;;;6.18;3.65;;;24.10;99.90;;;;;;4162998;28;20221;-72
2022/09/08 00:12:34;;;;;;;5.78;3.65;;;24.00;99.90;;;;;;4165096;28;20278;-73
2022/09/08 00:14:38;;;;;;;5.20;3.22;;;24.00;99.90;;;;;;4162791;28;20290;-72
2022/09/08 00:16:41;;;;;;;4.82;3.80;;;24.10;99.90;;;;;;4164008;28;20228;-73
2022/09/08 00:18:43;;;;;;;7.00;3.88;;;24.10;99.90;;;;;;4164447;28;20700;-73
2022/09/08 00:20:46;;;;;;;5.28;3.83;;;24.10;99.90;;;;;;4164054;28;20282;-73
2022/09/08 00:22:48;;;;;;;5.60;3.63;;;24.00;99.90;;;;;;4163864;28;20223;-72
2022/09/08 00:24:50;;;;;;;5.35;3.50;;;24.00;99.90;;;;;;4163966;28;20243;-73
2022/09/08 00:26:54;;;;;;;6.10;3.70;;;24.00;99.90;;;;;;4163498;28;20224;-73
2022/09/08 00:28:57;;;;;;;5.22;3.90;;;24.00;99.90;;;;;;4161053;28;20236;-72
2022/09/08 00:31:00;;;;;;;6.22;3.63;;;24.00;99.90;;;;;;4164545;28;20216;-72
2022/09/08 00:33:02;;;;;;;7.43;3.85;;;24.00;99.90;;;;;;4163955;28;20625;-72
2022/09/08 00:35:08;;;;;;;4.88;3.80;;;24.00;99.90;;;;;;4164504;28;20232;-72
2022/09/08 00:37:10;;;;;;;4.82;3.55;;;24.00;99.90;;;;;;4171469;28;20216;-72
2022/09/08 00:39:14;;;;;;;4.75;3.65;;;23.90;99.90;;;;;;4174557;28;20662;-75
2022/09/08 00:41:17;;;;;;;5.13;3.70;;;23.90;99.90;;;;;;4178909;28;20636;-74
2022/09/08 00:43:36;;;;;;;4.95;3.33;;;23.90;99.90;;;;;;4173726;28;20262;-74
2022/09/08 00:45:44;;;;;;;5.90;3.88;;;23.90;99.90;;;;;;4162148;28;20213;-75
2022/09/08 00:47:54;;;;;;;5.70;3.80;;;23.90;99.90;;;;;;4164629;28;20278;-75
2022/09/08 00:50:00;;;;;;;5.75;3.65;;;23.90;99.90;;;;;;4163706;28;20224;-75
2022/09/08 00:52:03;;;;;;;5.38;3.55;;;23.90;99.90;;;;;;4166355;28;20274;-75
2022/09/08 00:54:06;;;;;;;5.50;3.35;;;23.90;99.90;;;;;;4168846;28;20231;-75
2022/09/08 00:56:08;;;;;;;4.50;3.10;;;23.90;99.90;;;;;;4176655;28;20594;-75
2022/09/08 00:58:12;;;;;;;5.32;3.63;;;23.90;99.90;;;;;;4168045;28;20212;-75
2022/09/08 01:00:18;;;;;;;4.57;3.58;;;23.90;99.90;;;;;;4167814;28;20227;-75
2022/09/08 01:02:24;;;;;;;4.30;3.38;;;23.90;99.90;;;;;;4167335;28;20267;-75
2022/09/08 01:04:26;;;;;;;5.28;3.50;;;23.90;99.90;;;;;;4165487;28;20711;-75
2022/09/08 01:13:58;;;;;;;4.78;3.58;;;23.90;99.90;;;;;;4173726;28;20196;-75
2022/09/08 01:16:02;;;;;;;5.22;3.50;;;23.90;99.90;;;;;;4167972;28;20347;-75
2022/09/08 01:18:04;;;;;;;3.83;3.00;;;23.90;99.90;;;;;;4172356;28;20216;-75
2022/09/08 01:20:08;;;;;;;4.85;3.15;;;23.90;99.90;;;;;;4172062;28;20269;-75
2022/09/08 01:22:27;;;;;;;6.30;3.85;;;23.90;99.90;;;;;;4167999;28;20225;-75
2022/09/08 01:24:36;;;;;;;4.75;3.45;;;23.90;99.90;;;;;;4172399;28;20623;-75
2022/09/08 01:26:49;;;;;;;5.03;3.30;;;23.90;99.90;;;;;;4154999;28;20273;-75
2022/09/08 01:28:57;;;;;;;3.92;2.92;;;23.90;99.90;;;;;;4166241;28;20240;-75
2022/09/08 01:31:03;;;;;;;4.45;3.05;;;23.90;99.90;;;;;;4176680;28;20547;-75
2022/09/08 01:33:08;;;;;;;4.47;3.03;;;23.80;99.90;;;;;;4174497;28;20221;-75
2022/09/08 01:35:12;;;;;;;5.93;3.40;;;23.90;99.90;;;;;;4164097;28;20228;-74
2022/09/08 01:37:14;;;;;;;4.45;3.47;;;23.90;99.90;;;;;;4170179;28;20220;-75
2022/09/08 01:39:17;;;;;;;4.05;3.10;;;23.80;99.90;;;;;;4171039;28;20219;-75
2022/09/08 01:41:19;;;;;;;6.50;3.25;;;23.90;99.90;;;;;;4163361;28;20255;-75
2022/09/08 01:43:22;;;;;;;6.50;3.67;;;23.90;99.90;;;;;;4164625;28;20663;-75
2022/09/08 01:45:27;;;;;;;3.00;2.63;;;23.80;99.90;;;;;;4161650;28;20505;-74
2022/09/08 01:47:30;;;;;;;5.93;3.40;;;23.80;99.90;;;;;;4161750;28;20715;-75
2022/09/08 01:49:32;;;;;;;4.50;3.13;;;23.80;99.90;;;;;;4162309;28;20278;-75
2022/09/08 01:51:35;;;;;;;4.45;3.03;;;23.80;99.90;;;;;;4164834;28;20204;-74
2022/09/08 01:53:37;;;;;;;4.90;3.15;;;23.80;99.90;;;;;;4167331;28;20269;-74
2022/09/08 01:55:39;;;;;;;5.07;3.03;;;23.80;99.90;;;;;;4166293;28;20276;-74
2022/09/08 01:57:42;;;;;;;4.65;3.05;;;23.80;99.90;;;;;;4176390;28;20228;-74
2022/09/08 01:59:44;;;;;;;4.93;3.30;;;23.80;99.90;;;;;;4168896;28;20224;-74
2022/09/08 02:01:48;;;;;;;4.82;3.05;;;23.80;99.90;;;;;;4166209;28;20239;-75
2022/09/08 02:03:50;;;;;;;4.35;3.30;;;23.80;99.90;;;;;;4161205;28;20580;-75
2022/09/08 02:05:52;;;;;;;5.53;3.00;;;23.80;99.90;;;;;;4160119;28;20212;-75
2022/09/08 02:07:55;;;;;;;5.60;3.15;;;23.80;99.90;;;;;;4163539;28;20274;-75
2022/09/08 02:09:57;;;;;;;5.30;3.20;;;23.80;99.90;;;;;;4161909;28;20220;-75
2022/09/08 02:11:59;;;;;;;3.53;2.90;;;23.80;99.90;;;;;;4162237;28;20225;-75
2022/09/08 02:14:03;;;;;;;4.88;3.17;;;23.80;99.90;;;;;;4163410;28;20251;-75
2022/09/08 02:16:07;;;;;;;4.85;3.00;;;23.80;99.90;;;;;;4160265;28;20293;-75
2022/09/08 02:18:11;;;;;;;4.18;2.88;;;23.80;99.90;;;;;;4160449;28;20238;-75
2022/09/08 02:20:15;;;;;;;5.22;3.30;;;23.80;99.90;;;;;;4161655;28;20275;-75
2022/09/08 02:22:17;;;;;;;6.07;3.00;;;23.80;99.90;;;;;;4163532;28;20731;-75
2022/09/08 02:24:19;;;;;;;4.22;3.00;;;23.80;99.90;;;;;;4162701;28;20224;-75
2022/09/08 02:26:23;;;;;;;4.10;3.17;;;23.80;99.90;;;;;;4162256;28;20258;-75
2022/09/08 02:28:26;;;;;;;4.18;3.30;;;23.80;99.90;;;;;;4161170;28;20656;-75
2022/09/08 02:30:28;;;;;;;4.22;3.15;;;23.80;99.90;;;;;;4162224;28;20220;-75
2022/09/08 02:32:31;;;;;;;3.40;2.95;;;23.80;99.90;;;;;;4161423;28;20220;-75
2022/09/08 02:34:34;;;;;;;4.35;2.95;;;23.80;99.90;;;;;;4156104;28;20981;-75
2022/09/08 02:36:36;;;;;;;3.83;2.88;;;23.80;99.90;;;;;;4161269;28;20637;-75
2022/09/08 02:38:39;;;;;;;4.32;2.90;;;23.80;99.90;;;;;;4163284;28;20224;-75
2022/09/08 02:40:42;;;;;;;4.18;3.05;;;23.80;99.90;;;;;;4160241;28;20228;-75
2022/09/08 02:42:45;;;;;;;6.20;3.22;;;23.80;99.90;;;;;;4164662;28;20265;-75
2022/09/08 02:44:47;;;;;;;3.95;3.17;;;23.80;99.90;;;;;;4160794;28;20632;-75
2022/09/08 02:46:49;;;;;;;4.85;3.17;;;23.80;99.90;;;;;;4160264;28;20224;-75
2022/09/08 02:48:52;;;;;;;3.22;2.75;;;23.80;99.90;;;;;;4161510;28;20696;-75
2022/09/08 02:50:58;;;;;;;4.95;3.05;;;23.80;99.90;;;;;;4160738;28;20279;-74
2022/09/08 02:53:00;;;;;;;5.65;3.15;;;23.80;99.90;;;;;;4162984;28;20286;-75
2022/09/08 02:55:03;;;;;;;4.55;2.85;;;23.70;99.90;;;;;;4161932;28;20236;-75
2022/09/08 02:57:05;;;;;;;5.40;2.97;;;23.80;99.90;;;;;;4160358;28;20645;-74
2022/09/08 02:59:08;;;;;;;3.17;2.80;;;23.70;99.90;;;;;;4162499;28;20258;-75
2022/09/08 03:01:10;;;;;;;4.05;2.85;;;23.80;99.90;;;;;;4160977;28;20220;-75
2022/09/08 03:03:12;;;;;;;3.70;2.90;;;23.70;99.90;;;;;;4161256;28;20546;-75
2022/09/08 03:05:15;;;;;;;5.50;3.63;;;23.70;99.90;;;;;;4162953;28;20926;-75
2022/09/08 03:07:19;;;;;;;4.35;2.80;;;23.80;99.90;;;;;;4161476;28;20214;-75
2022/09/08 03:09:22;;;;;;;5.00;2.97;;;23.70;99.90;;;;;;4162614;28;20259;-75
2022/09/08 03:11:24;;;;;;;3.40;2.80;;;23.70;99.90;;;;;;4162500;28;20208;-74
2022/09/08 03:13:26;;;;;;;3.60;2.95;;;23.70;99.90;;;;;;4160892;28;20217;-75
2022/09/08 03:15:31;;;;;;;4.03;2.90;;;23.70;99.90;;;;;;4160777;28;20309;-75
2022/09/08 03:17:33;;;;;;;3.53;2.75;;;23.70;99.90;;;;;;4162601;28;20658;-75
2022/09/08 03:19:36;;;;;;;3.88;2.92;;;23.70;99.90;;;;;;4161136;28;20294;-74
2022/09/08 03:21:38;;;;;;;3.60;2.63;;;23.70;99.90;;;;;;4162860;28;20212;-75
2022/09/08 03:23:42;;;;;;;3.85;2.80;;;23.70;99.90;;;;;;4162207;28;20286;-74
2022/09/08 03:25:44;;;;;;;3.58;2.63;;;23.70;99.90;;;;;;4160970;28;20220;-74
2022/09/08 03:27:47;;;;;;;4.18;3.00;;;23.70;99.90;;;;;;4162804;28;20221;-75
2022/09/08 03:29:49;;;;;;;3.55;2.75;;;23.70;99.90;;;;;;4158189;28;20240;-75
2022/09/08 03:31:51;;;;;;;4.35;3.28;;;23.70;99.90;;;;;;4168432;28;20649;-75
2022/09/08 03:33:55;;;;;;;3.47;2.67;;;23.70;99.90;;;;;;4164650;28;20250;-75
2022/09/08 03:36:01;;;;;;;4.90;3.20;;;23.70;99.90;;;;;;4162446;28;20286;-75
2022/09/08 03:38:03;;;;;;;3.78;2.70;;;23.70;99.90;;;;;;4161020;28;20220;-74
2022/09/08 03:40:10;;;;;;;4.13;2.92;;;23.70;99.90;;;;;;4163251;28;20669;-75
2022/09/08 03:42:12;;;;;;;3.92;2.95;;;23.70;99.90;;;;;;4160628;28;20217;-75
2022/09/08 03:44:15;;;;;;;4.72;2.90;;;23.70;99.90;;;;;;4160303;28;20225;-75
2022/09/08 03:46:18;;;;;;;4.05;2.70;;;23.70;99.90;;;;;;4159815;28;20216;-75
2022/09/08 03:48:20;;;;;;;3.53;2.55;;;23.70;99.90;;;;;;4163336;28;20224;-75
2022/09/08 03:50:23;;;;;;;3.80;3.28;;;23.70;99.90;;;;;;4162231;28;20621;-75
2022/09/08 03:52:27;;;;;;;4.15;3.00;;;23.70;99.90;;;;;;4161504;28;20366;-75
2022/09/08 03:56:51;;;;;;;2.95;2.50;;;23.70;99.90;;;;;;4160975;28;20220;-75
2022/09/08 03:58:53;;;;;;;3.70;2.88;;;23.70;99.90;;;;;;4162773;28;20271;-74
2022/09/08 04:00:56;;;;;;;3.80;2.78;;;23.60;99.90;;;;;;4166100;28;20731;-75
2022/09/08 04:02:58;;;;;;;3.80;3.03;;;23.60;99.90;;;;;;4164152;28;20220;-74
2022/09/08 04:05:00;;;;;;;4.07;2.55;;;23.60;99.90;;;;;;4164188;28;20225;-74
2022/09/08 04:07:04;;;;;;;4.38;2.80;;;23.70;99.90;;;;;;4165663;28;20212;-75
2022/09/08 04:09:06;;;;;;;3.78;2.72;;;23.60;99.90;;;;;;4164886;28;20216;-75
2022/09/08 04:11:09;;;;;;;4.65;2.75;;;23.70;99.90;;;;;;4163425;28;20262;-75
2022/09/08 04:13:13;;;;;;;3.97;2.97;;;23.70;99.90;;;;;;4163613;28;20326;-75
2022/09/08 04:15:16;;;;;;;3.83;2.50;;;23.60;99.90;;;;;;4164569;28;20275;-75
2022/09/08 04:17:19;;;;;;;4.78;2.80;;;23.70;99.90;;;;;;4163166;28;20298;-75
2022/09/08 04:19:21;;;;;;;5.47;2.75;;;23.70;99.90;;;;;;4161510;28;20228;-75
2022/09/08 04:21:23;;;;;;;2.88;2.45;;;23.70;99.90;;;;;;4164953;28;20661;-75
2022/09/08 04:23:26;;;;;;;3.13;2.50;;;23.60;99.90;;;;;;4159522;28;20212;-75
2022/09/08 04:25:28;;;;;;;5.10;2.67;;;23.60;99.90;;;;;;4164537;28;20314;-75
2022/09/08 04:27:30;;;;;;;4.18;2.60;;;23.60;99.90;;;;;;4164549;28;20213;-75
2022/09/08 04:29:34;;;;;;;3.53;2.95;;;23.60;99.90;;;;;;4163091;28;20733;-76
2022/09/08 04:31:36;;;;;;;3.47;2.58;;;23.60;99.90;;;;;;4165345;28;20262;-75
2022/09/08 04:33:39;;;;;;;3.63;2.63;;;23.60;99.90;;;;;;4163811;28;20235;-76
2022/09/08 04:35:41;;;;;;;3.90;2.95;;;23.60;99.90;;;;;;4162814;28;20628;-75
2022/09/08 04:37:44;;;;;;;3.75;2.50;;;23.60;99.90;;;;;;4163579;28;20622;-75
2022/09/08 04:39:48;;;;;;;4.13;2.53;;;23.60;99.90;;;;;;4165145;28;20290;-75
2022/09/08 04:41:51;;;;;;;3.45;2.72;;;23.60;99.90;;;;;;4165608;28;20224;-74
2022/09/08 04:43:54;;;;;;;3.90;2.58;;;23.60;99.90;;;;;;4166274;28;20539;-75
2022/09/08 04:46:01;;;;;;;4.05;2.58;;;23.60;99.90;;;;;;4162604;28;20220;-75
2022/09/08 04:48:03;;;;;;;3.33;2.30;;;23.60;99.90;;;;;;4162298;28;20216;-75
2022/09/08 04:50:06;;;;;;;3.05;2.45;;;23.50;99.90;;;;;;4165423;28;20262;-75
2022/09/08 04:52:09;;;;;;;2.47;2.20;;;23.60;99.90;;;;;;4162697;28;20220;-75
2022/09/08 04:54:12;;;;;;;4.93;3.00;;;23.50;99.90;;;;;;4162076;28;20228;-75
2022/09/08 04:56:15;;;;;;;5.32;2.70;;;23.60;99.90;;;;;;4163668;28;20290;-75
2022/09/08 04:58:17;;;;;;;4.18;2.45;;;23.50;99.90;;;;;;4164397;28;20229;-74
2022/09/08 05:00:20;;;;;;;4.00;2.92;;;23.60;99.90;;;;;;4164824;28;20282;-74
2022/09/08 05:02:23;;;;;;;4.93;3.03;;;23.60;99.90;;;;;;4163626;28;20571;-75
2022/09/08 05:04:26;;;;;;;4.22;2.50;;;23.60;99.90;;;;;;4162749;28;20259;-74
2022/09/08 05:06:29;;;;;;;4.43;2.47;;;23.50;99.90;;;;;;4163466;28;20661;-75
2022/09/08 05:08:31;;;;;;;4.03;2.67;;;23.50;99.90;;;;;;4164096;28;20786;-75
2022/09/08 05:10:34;;;;;;;4.25;2.72;;;23.50;99.90;;;;;;4163095;28;20220;-75
2022/09/08 05:12:37;;;;;;;4.30;2.65;;;23.50;99.90;;;;;;4163925;28;20224;-74
2022/09/08 05:14:39;;;;;;;3.97;2.80;;;23.60;99.90;;;;;;4164446;28;20220;-75
2022/09/08 05:16:41;;;;;;;2.90;2.40;;;23.50;99.90;;;;;;4163780;28;20248;-76
2022/09/08 05:18:47;;;;;;;3.47;2.50;;;23.50;99.90;;;;;;4163462;28;20269;-76
2022/09/08 05:20:54;;;;;;;3.95;2.70;;;23.60;99.90;;;;;;4163196;28;20229;-76
2022/09/08 05:22:56;;;;;;;3.22;2.53;;;23.60;99.90;;;;;;4163975;28;20209;-76
2022/09/08 05:25:00;;;;;;;3.92;2.58;;;23.50;99.90;;;;;;4163973;28;20212;-76
2022/09/08 05:27:02;;;;;;;3.05;2.63;;;23.50;99.90;;;;;;4165077;28;20767;-76
2022/09/08 05:29:04;;;;;;;3.15;2.58;;;23.50;99.90;;;;;;4161843;28;20286;-76
2022/09/08 05:31:09;;;;;;;4.63;2.55;;;23.50;99.90;;;;;;4162790;28;20294;-76
2022/09/08 05:33:11;;;;;;;3.10;2.40;;;23.50;99.90;;;;;;4164849;28;20220;-76
2022/09/08 05:35:14;;;;;;;2.90;2.60;;;23.50;99.90;;;;;;4161977;28;20212;-76
2022/09/08 05:37:17;;;;;;;5.25;2.60;;;23.60;99.90;;;;;;4163212;28;20286;-76
2022/09/08 05:39:19;;;;;;;4.22;2.70;;;23.50;99.90;;;;;;4165051;28;20216;-76
2022/09/08 05:41:22;;;;;;;3.90;2.67;;;23.50;99.90;;;;;;4162838;28;20224;-76
2022/09/08 05:43:25;;;;;;;3.70;2.63;;;23.50;99.90;;;;;;4163121;28;20650;-76
2022/09/08 05:45:27;;;;;;;3.75;2.53;;;23.50;99.90;;;;;;4163186;28;20252;-76
2022/09/08 05:47:29;;;;;;;4.05;2.60;;;23.50;99.90;;;;;;4162087;28;20208;-76
2022/09/08 05:49:32;;;;;;;3.35;2.47;;;23.50;99.90;;;;;;4162463;28;20219;-76
2022/09/08 05:51:35;;;;;;;2.80;2.53;;;23.50;99.90;;;;;;4163952;28;20220;-76
2022/09/08 05:53:38;;;;;;;4.72;2.63;;;23.50;99.90;;;;;;4163093;28;20212;-76
2022/09/08 05:55:41;;;;;;;3.47;2.35;;;23.50;99.90;;;;;;4163465;28;20624;-76
2022/09/08 05:57:43;;;;;;;4.43;2.60;;;23.50;99.90;;;;;;4162663;28;20286;-76
2022/09/08 05:59:46;;;;;;;3.65;2.75;;;23.50;99.90;;;;;;4165241;28;20261;-76
2022/09/08 06:01:48;;;;;;;4.55;2.53;;;23.50;99.90;;;;;;4162551;28;20262;-76
2022/09/08 06:03:52;;;;;;;4.07;2.30;;;23.50;99.90;;;;;;4162820;28;20213;-76
2022/09/08 06:05:55;;;;;;;4.05;2.53;;;23.50;99.90;;;;;;4163027;28;20680;-76
2022/09/08 06:07:58;;;;;;;3.28;2.58;;;23.50;99.90;;;;;;4162036;28;20282;-76
2022/09/08 06:10:00;;;;;;;2.90;2.45;;;23.50;99.90;;;;;;4158691;28;20224;-76
2022/09/08 06:12:03;;;;;;;3.00;2.30;;;23.50;99.90;;;;;;4160705;28;20232;-76
2022/09/08 06:14:06;;;;;;;3.05;2.40;;;23.50;99.90;;;;;;4162237;28;20669;-76
2022/09/08 06:16:11;;;;;;;4.57;2.75;;;23.50;99.90;;;;;;4160888;28;20282;-76
2022/09/08 06:18:13;;;;;;;2.88;2.20;;;23.50;99.90;;;;;;4163193;28;20244;-73
2022/09/08 06:20:16;;;;;;;3.50;2.60;;;23.50;99.90;;;;;;4159091;28;20263;-74
2022/09/08 06:22:18;;;;;;;4.00;2.58;;;23.50;99.90;;;;;;4161244;28;20220;-73
2022/09/08 06:24:21;;;;;;;3.83;2.55;;;23.50;99.90;;;;;;4162305;28;20220;-73
2022/09/08 06:26:45;;;;;;;3.67;2.53;;;23.50;99.90;;;;;;4161457;28;20232;-73
2022/09/08 06:28:53;;;;;;;3.13;2.42;;;23.50;99.90;;;;;;4158405;28;20642;-73
2022/09/08 06:30:57;;;;;;;4.43;2.60;;;23.50;99.90;;;;;;4163997;28;20281;-73
2022/09/08 06:33:03;;;;;;;3.08;2.50;;;23.50;99.90;;;;;;4161924;28;20216;-73
2022/09/08 06:35:11;;;;;;;2.80;2.42;;;23.50;99.90;;;;;;4162429;28;20217;-73
2022/09/08 06:37:27;;;;;;;3.75;2.40;;;23.50;99.90;;;;;;4160864;28;20239;-73
2022/09/08 06:39:39;;;;;;;2.60;2.40;;;23.50;99.90;;;;;;4161638;28;20224;-73
2022/09/08 06:41:47;;;;;;;2.72;2.30;;;23.60;99.90;;;;;;4161751;28;20274;-73
2022/09/08 06:43:54;;;;;;;3.05;2.55;;;23.50;99.90;;;;;;4161974;28;20239;-73
2022/09/08 06:45:58;;;;;;;3.60;2.45;;;23.50;99.90;;;;;;4159059;28;20361;-74
2022/09/08 06:48:25;;;;;;;4.43;2.33;;;23.60;99.90;;;;;;4162216;28;20216;-73
2022/09/08 06:50:33;;;;;;;3.83;2.40;;;23.60;99.90;;;;;;4161895;28;20236;-73
2022/09/08 06:52:43;;;;;;;3.30;2.45;;;23.50;99.90;;;;;;4160482;28;20224;-76
2022/09/08 06:54:54;;;;;;;3.25;2.42;;;23.60;99.90;;;;;;4161069;28;20350;-76
2022/09/08 06:57:06;;;;;;;6.13;2.75;;;23.50;99.90;;;;;;4158012;28;20258;-75
2022/09/08 06:59:31;;;;;;;6.85;2.78;;;23.30;99.90;;;;;;4161612;28;20289;-75
2022/09/08 07:01:40;;;;;;;6.57;2.58;;;23.10;99.90;;;;;;4160612;28;20629;-77
2022/09/08 07:03:59;;;;;;;3.50;2.20;;;23.00;99.90;;;;;;4163929;28;20571;-76
2022/09/08 07:06:05;;;;;;;5.30;2.20;;;23.00;99.90;;;;;;4167749;28;20273;-75
2022/09/08 07:08:19;;;;;;;5.63;2.40;;;22.90;99.90;;;;;;4160712;28;20294;-75
2022/09/08 07:10:29;;;;;;;6.35;2.63;;;22.90;99.90;;;;;;4163970;28;20211;-76
2022/09/08 07:12:46;;;;;;;4.30;2.08;;;22.90;99.90;;;;;;4162204;28;20216;-76
2022/09/08 07:15:04;;;;;;;6.55;2.60;;;23.00;99.90;;;;;;4163902;28;20219;-76
2022/09/08 07:17:13;;;;;;;5.40;2.10;;;22.80;99.90;;;;;;4154125;28;20225;-75
2022/09/08 07:19:21;;;;;;;5.15;2.60;;;22.80;99.90;;;;;;4162169;28;20261;-75
2022/09/08 07:21:34;;;;;;;5.38;2.45;;;22.60;99.90;;;;;;4158354;28;20271;-75
2022/09/08 07:23:39;;;;;;;7.60;2.20;;;22.50;99.90;;;;;;4160099;28;20220;-75
2022/09/08 07:25:47;;;;;;;5.32;2.05;;;22.60;99.90;;;;;;4159426;28;20273;-74
2022/09/08 07:27:55;;;;;;;5.93;2.13;;;22.70;99.90;;;;;;4165082;28;20714;-75
2022/09/08 07:30:01;;;;;;;7.95;2.75;;;22.60;99.90;;;;;;4159132;28;20220;-74
2022/09/08 07:32:03;;;;;;;6.28;2.45;;;22.60;99.90;;;;;;4167997;28;20266;-74
2022/09/08 07:34:12;;;;;;;9.13;2.33;;;22.60;99.90;;;;;;4165953;28;20346;-74
2022/09/08 07:36:22;;;;;;;7.38;2.33;;;22.60;99.90;;;;;;4170071;28;20216;-75
2022/09/08 07:38:35;;;;;;;5.85;2.33;;;22.70;99.90;;;;;;4164203;28;20236;-75
2022/09/08 07:40:42;;;;;;;8.02;2.40;;;22.60;99.90;;;;;;4161080;28;20270;-75
2022/09/08 07:42:49;;;;;;;4.00;1.90;;;22.70;99.90;;;;;;4164567;28;20278;-75
2022/09/08 07:44:57;;;;;;;7.05;2.50;;;22.80;99.90;;;;;;4166077;28;20273;-76
2022/09/08 07:47:18;;;;;;;6.38;2.50;;;22.70;99.90;;;;;;4166748;28;20216;-76
2022/09/08 07:49:27;;;;;;;7.30;2.28;;;22.60;99.90;;;;;;4162085;28;20710;-76
2022/09/08 07:51:38;;;;;;;11.80;2.17;;;22.60;99.90;;;;;;4164617;28;20220;-76
2022/09/08 07:53:57;;;;;;;5.38;2.13;;;22.60;99.90;;;;;;4163421;28;20212;-75
2022/09/08 07:56:10;;;;;;;6.47;2.47;;;22.70;99.90;;;;;;4161793;28;20283;-75
2022/09/08 07:58:19;;;;;;;6.25;2.17;;;22.60;99.90;;;;;;4162739;28;20278;-75
2022/09/08 08:00:28;;;;;;;8.50;2.70;;;22.60;99.90;;;;;;4162374;28;20212;-74
2022/09/08 08:02:55;;;;;;;10.40;3.00;;;22.60;99.90;;;;;;4164369;28;20270;-74
2022/09/08 08:05:07;;;;;;;4.85;2.50;;;22.50;99.90;;;;;;4163097;28;20212;-75
2022/09/08 08:07:14;;;;;;;10.32;2.80;;;22.60;99.90;;;;;;4153479;28;20220;-75
2022/09/08 08:09:28;;;;;;;4.03;2.17;;;22.70;99.90;;;;;;4165747;28;20259;-75
2022/09/08 08:11:37;;;;;;;7.72;2.85;;;22.80;99.90;;;;;;4159286;28;20242;-75
2022/09/08 08:13:53;;;;;;;5.63;2.67;;;22.90;99.90;;;;;;4164987;28;20278;-74
2022/09/08 08:16:02;;;;;;;8.82;3.00;;;23.00;99.90;;;;;;4159341;28;20217;-74
2022/09/08 08:18:12;;;;;;;5.63;2.70;;;23.00;99.90;;;;;;4164068;28;20277;-74
2022/09/08 08:20:33;;;;;;;5.30;2.28;;;22.90;99.90;;;;;;4164920;28;20286;-78
2022/09/08 08:23:05;;;;;;;9.90;3.22;;;22.80;99.90;;;;;;4159207;28;20221;-75
2022/09/08 08:25:24;;;;;;;8.57;2.85;;;22.80;99.90;;;;;;4155364;28;20216;-75
2022/09/08 08:27:32;;;;;;;7.40;2.40;;;22.80;99.90;;;;;;4158099;28;20212;-75
2022/09/08 08:30:12;;;;;;;8.18;2.50;;;22.90;99.90;;;;;;4158317;28;20285;-74
2022/09/08 08:32:19;;;;;;;6.18;2.70;;;22.80;99.90;;;;;;4163132;28;20685;-74
2022/09/08 08:34:25;;;;;;;6.32;2.67;;;22.80;99.90;;;;;;4162795;28;20274;-73
2022/09/08 08:36:30;;;;;;;10.13;2.20;;;22.90;99.90;;;;;;4160903;28;20288;-74
2022/09/08 08:38:36;;;;;;;7.82;2.45;;;22.90;99.90;;;;;;4164946;28;20240;-75
2022/09/08 08:40:53;;;;;;;5.13;2.10;;;22.80;99.90;;;;;;4164088;28;20266;-75
2022/09/08 08:43:17;;;;;;;6.75;2.08;;;22.80;99.90;;;;;;4162818;28;20220;-75
2022/09/08 08:45:36;;;;;;;6.57;2.30;;;22.90;99.90;;;;;;4160679;28;20251;-75
2022/09/08 08:47:51;;;;;;;7.20;2.20;;;22.90;99.90;;;;;;4163018;28;20220;-76
2022/09/08 08:50:24;;;;;;;9.55;2.72;;;22.90;99.90;;;;;;4160165;28;22100;-76
2022/09/08 08:52:54;;;;;;;5.85;2.35;;;23.00;99.90;;;;;;4167288;28;20275;-76
2022/09/08 08:55:08;;;;;;;4.57;2.03;;;23.00;99.90;;;;;;4153903;28;20220;-75
2022/09/08 08:57:24;;;;;;;5.72;2.28;;;23.00;99.90;;;;;;4156311;28;20208;-75
2022/09/08 09:00:03;;;;;;;5.30;2.28;;;23.10;99.90;;;;;;4159737;28;20497;-74
2022/09/08 09:02:24;;;;;;;6.05;2.30;;;23.10;99.90;;;;;;4140772;28;20268;-75
2022/09/08 09:05:02;;;;;;;7.13;2.28;;;23.10;99.90;;;;;;4158133;28;20290;-74
2022/09/08 09:07:33;;;;;;;8.15;2.45;;;23.10;99.90;;;;;;4164792;28;20668;-74
2022/09/08 09:09:57;;;;;;;7.05;2.05;;;23.20;99.90;;;;;;4157983;28;20220;-74
2022/09/08 09:12:36;;;;;;;9.75;2.50;;;23.20;99.90;;;;;;4156417;28;20216;-75
2022/09/08 09:14:58;;;;;;;6.80;2.63;;;23.20;99.90;;;;;;4116906;28;20254;-73
2022/09/08 09:17:18;;;;;;;8.43;2.38;;;23.30;99.90;;;;;;4161547;28;20264;-74
2022/09/08 09:20:00;;;;;;;9.38;2.10;;;23.30;99.90;;;;;;4161784;28;20282;-74
2022/09/08 09:22:11;;;;;;;5.07;2.22;;;23.40;99.90;;;;;;4162554;28;21828;-73
2022/09/08 09:24:22;;;;;;;5.15;2.00;;;23.40;99.90;;;;;;4161585;28;20216;-73
2022/09/08 09:26:28;;;;;;;4.75;2.35;;;23.40;99.90;;;;;;4157861;28;20266;-75
2022/09/08 09:28:56;;;;;;;20.40;5.05;;;23.50;99.90;;;;;;4157378;28;20240;-76
2022/09/08 09:31:11;;;;;;;20.42;4.75;;;23.40;99.90;;;;;;4158672;28;20568;-75
2022/09/08 09:33:38;;;;;;;20.77;4.03;;;23.40;99.90;;;;;;4160358;28;20282;-74
2022/09/08 10:05:57;;;;;;;7.68;2.33;;;23.40;99.90;;;;;;4166445;28;20847;-71
2022/09/08 10:08:32;;;;;;;5.90;2.20;;;23.50;99.90;;;;;;4155923;28;20267;-70
2022/09/08 10:11:06;;;;;;;7.07;2.55;;;23.70;99.90;;;;;;4154129;28;20212;-72
2022/09/08 10:13:40;;;;;;;7.18;2.40;;;23.70;99.90;;;;;;4149044;28;20216;-72
2022/09/08 10:16:34;;;;;;;9.73;2.00;;;23.70;99.90;;;;;;4154398;28;20254;-71
2022/09/08 10:19:14;;;;;;;8.70;2.30;;;23.70;99.90;;;;;;4148945;28;20631;-72
2022/09/08 10:22:04;;;;;;;5.28;1.90;;;23.60;99.90;;;;;;4152463;28;20266;-70
2022/09/08 10:24:39;;;;;;;7.78;2.35;;;23.60;99.90;;;;;;4150399;28;22275;-71
2022/09/08 10:27:48;;;;;;;8.18;2.03;;;23.60;99.90;;;;;;4155319;28;20239;-71
2022/09/08 10:30:30;;;;;;;7.72;2.00;;;23.60;99.90;;;;;;4152746;28;20231;-71
2022/09/08 10:33:19;;;;;;;7.40;1.88;;;23.60;99.90;;;;;;4152755;28;20243;-70
2022/09/08 10:35:37;;;;;;;6.68;1.85;;;23.50;99.90;;;;;;4137332;28;20742;-69
2022/09/08 10:38:08;;;;;;;9.00;2.40;;;23.60;99.90;;;;;;4156058;28;20290;-70
2022/09/08 10:40:27;;;;;;;9.65;2.58;;;23.50;99.90;;;;;;4151161;28;20221;-71
2022/09/08 10:42:47;;;;;;;8.55;2.30;;;23.50;99.90;;;;;;4155791;28;20976;-72
2022/09/08 10:45:10;;;;;;;12.50;3.13;;;23.60;99.90;;;;;;4153279;28;20286;-71
2022/09/08 10:48:00;;;;;;;14.50;4.22;;;23.60;99.90;;;;;;4152202;28;20217;-71
2022/09/08 10:50:22;;;;;;;16.17;3.05;;;23.60;99.90;;;;;;4124726;28;20217;-72
2022/09/08 10:52:31;;;;;;;9.93;3.33;;;23.60;99.90;;;;;;4148777;28;20255;-71
2022/09/08 10:55:12;;;;;;;11.48;3.75;;;23.60;99.90;;;;;;4154008;28;20216;-72
2022/09/08 10:57:27;;;;;;;8.82;3.25;;;23.60;99.90;;;;;;4149528;28;20327;-70
2022/09/08 10:59:59;;;;;;;10.50;2.83;;;23.70;99.90;;;;;;4152494;28;20331;-72
2022/09/08 11:02:14;;;;;;;10.05;3.60;;;23.70;99.90;;;;;;4152722;28;20216;-71
2022/09/08 11:04:55;;;;;;;9.20;3.95;;;23.80;99.90;;;;;;4151913;28;20287;-71
2022/09/08 11:07:18;;;;;;;8.70;3.20;;;23.80;99.90;;;;;;4144331;28;20213;-71
2022/09/08 11:09:40;;;;;;;8.85;3.15;;;23.70;99.90;;;;;;4146215;28;20217;-71
2022/09/08 11:12:23;;;;;;;7.50;3.08;;;23.70;99.90;;;;;;4143318;28;20213;-70
2022/09/08 11:14:55;;;;;;;10.52;3.42;;;23.70;99.90;;;;;;4141725;28;20209;-72
2022/09/08 11:17:13;;;;;;;6.32;2.60;;;23.70;99.90;;;;;;4141772;28;20213;-71
2022/09/08 11:19:40;;;;;;;9.43;3.38;;;23.80;99.90;;;;;;4147089;28;20272;-71
2022/09/08 11:21:53;;;;;;;11.02;3.03;;;23.80;99.90;;;;;;4140335;28;20661;-70
2022/09/08 11:24:09;;;;;;;14.13;3.25;;;23.80;99.90;;;;;;4143107;28;20241;-74
2022/09/08 11:26:27;;;;;;;8.00;2.60;;;23.80;99.90;;;;;;4142463;28;20267;-74
2022/09/08 11:28:49;;;;;;;9.48;2.78;;;23.90;99.90;;;;;;4138487;28;20225;-72
2022/09/08 11:31:02;;;;;;;9.20;3.08;;;23.90;99.90;;;;;;4139155;28;20221;-72
2022/09/08 11:33:21;;;;;;;10.02;2.53;;;23.80;99.90;;;;;;4142123;28;20260;-73
2022/09/08 11:35:38;;;;;;;6.63;2.58;;;23.80;99.90;;;;;;4138539;28;20265;-73
2022/09/08 11:38:15;;;;;;;7.97;2.58;;;23.70;99.90;;;;;;4140221;28;20273;-73
2022/09/08 11:40:39;;;;;;;9.25;2.40;;;23.70;99.90;;;;;;4143784;28;20665;-73
2022/09/08 11:43:13;;;;;;;7.53;2.58;;;23.70;99.90;;;;;;4142711;28;20267;-74
2022/09/08 11:45:25;;;;;;;5.75;2.33;;;23.60;99.90;;;;;;4144362;28;20280;-74
2022/09/08 11:47:56;;;;;;;7.47;2.60;;;23.50;99.90;;;;;;4139303;28;20256;-73
2022/09/08 11:50:33;;;;;;;9.88;2.33;;;23.50;99.90;;;;;;4140320;28;20210;-73
2022/09/08 11:52:51;;;;;;;7.13;1.98;;;23.50;99.90;;;;;;4117985;28;20637;-71
2022/09/08 11:55:18;;;;;;;10.27;2.30;;;23.60;99.90;;;;;;4145495;28;20267;-71